Time;durP1;ratioP1;P1;durP2;ratioP2;P2;SDS_P1;SDS_P2;PMS_P1;PMS_P2;Temp;Humidity;BMP_temperature;BMP_pressure;BME280_temperature;BME280_humidity;BME280_pressure;Samples;Min_cycle;Max_cycle;Signal;HPM_P1;HPM_P2
2021/01/29 00:02:18;;;;;;;3.80;1.67;;;;;;;-4.11;95.48;98742.41;10415037;28;20223;-56
2021/01/29 00:07:19;;;;;;;4.60;2.77;;;;;;;-4.13;96.39;98740.75;10414017;28;20236;-58
2021/01/29 00:12:20;;;;;;;10.10;4.40;;;;;;;-4.13;96.81;98744.19;10414734;28;20200;-57
2021/01/29 00:17:21;;;;;;;12.33;4.60;;;;;;;-4.15;97.57;98732.97;10413977;28;20207;-56
2021/01/29 00:22:21;;;;;;;6.00;2.87;;;;;;;-4.12;97.80;98739.84;10414397;28;20211;-57
2021/01/29 00:27:22;;;;;;;8.93;4.07;;;;;;;-4.03;98.58;98736.94;10414141;28;20657;-57
2021/01/29 00:32:22;;;;;;;11.27;4.67;;;;;;;-3.95;98.25;98728.88;10427281;28;20277;-57
2021/01/29 00:37:23;;;;;;;6.70;2.97;;;;;;;-3.90;98.22;98717.44;10454358;28;20214;-57
2021/01/29 00:42:23;;;;;;;4.80;2.80;;;;;;;-3.89;98.53;98713.06;10433172;28;20278;-57
2021/01/29 00:47:24;;;;;;;8.90;4.07;;;;;;;-3.91;98.38;98714.88;10454052;28;20172;-58
2021/01/29 00:52:25;;;;;;;6.10;3.83;;;;;;;-3.90;98.70;98711.38;10437117;28;20210;-58
2021/01/29 00:57:25;;;;;;;4.00;3.27;;;;;;;-3.71;99.27;98709.84;10453741;28;20259;-58
2021/01/29 01:02:26;;;;;;;9.30;4.67;;;;;;;-3.54;98.82;98699.75;10454266;28;20187;-58
2021/01/29 01:07:26;;;;;;;6.93;4.40;;;;;;;-3.51;98.23;98710.06;10453525;28;20611;-57
2021/01/29 01:12:27;;;;;;;8.23;3.67;;;;;;;-3.35;98.42;98715.59;10445973;28;20677;-58
2021/01/29 01:17:27;;;;;;;6.13;3.57;;;;;;;-3.19;97.77;98715.94;10411702;28;20179;-57
2021/01/29 01:22:28;;;;;;;4.23;2.87;;;;;;;-3.04;97.21;98716.28;10411232;28;20197;-59
2021/01/29 01:27:28;;;;;;;4.77;3.23;;;;;;;-2.95;96.50;98710.72;10451291;28;20187;-57
2021/01/29 01:32:29;;;;;;;5.97;4.00;;;;;;;-2.87;97.17;98720.88;10452766;28;20227;-57
2021/01/29 01:37:29;;;;;;;5.80;3.47;;;;;;;-2.79;95.94;98724.06;10452673;28;20172;-58
2021/01/29 01:42:30;;;;;;;4.77;2.50;;;;;;;-2.73;95.80;98721.22;10456916;28;20199;-58
2021/01/29 01:47:39;;;;;;;5.37;3.33;;;;;;;-2.67;95.32;98710.59;10460858;28;20189;-58
2021/01/29 01:52:40;;;;;;;5.47;2.43;;;;;;;-2.63;95.03;98717.38;10418236;28;20613;-58
2021/01/29 01:57:44;;;;;;;5.50;3.60;;;;;;;-2.62;94.81;98724.28;10419329;28;20219;-58
2021/01/29 02:02:46;;;;;;;4.13;2.53;;;;;;;-2.51;94.31;98720.44;10417823;28;20553;-57
2021/01/29 02:07:55;;;;;;;6.47;3.20;;;;;;;-2.50;94.07;98725.59;10418542;28;20722;-57
2021/01/29 02:12:57;;;;;;;11.37;4.83;;;;;;;-2.46;94.34;98715.91;10418732;28;20634;-57
2021/01/29 02:18:22;;;;;;;6.93;3.97;;;;;;;-2.44;93.51;98727.16;10419045;28;20190;-57
2021/01/29 02:23:47;;;;;;;3.87;2.17;;;;;;;-2.43;93.67;98731.47;10418747;28;20196;-57
2021/01/29 02:29:15;;;;;;;7.93;4.10;;;;;;;-2.38;94.06;98726.91;10418644;28;20204;-57
2021/01/29 02:34:45;;;;;;;6.03;2.97;;;;;;;-2.35;94.22;98714.59;10418158;28;20191;-57
2021/01/29 02:40:10;;;;;;;5.07;3.10;;;;;;;-2.34;93.81;98720.66;10417512;28;20231;-57
2021/01/29 02:45:35;;;;;;;10.87;4.70;;;;;;;-2.30;94.47;98717.03;10448473;28;20212;-58
2021/01/29 02:50:46;;;;;;;2.90;2.37;;;;;;;-2.29;93.84;98700.44;10431266;28;20675;-58
2021/01/29 02:55:56;;;;;;;7.90;4.27;;;;;;;-2.29;94.46;98690.84;10418275;28;20277;-58
2021/01/29 03:01:18;;;;;;;7.40;4.33;;;;;;;-2.31;94.52;98690.06;10457637;28;20196;-57
2021/01/29 03:06:26;;;;;;;8.97;4.47;;;;;;;-2.22;94.75;98712.38;10456419;28;20164;-57
2021/01/29 03:11:34;;;;;;;9.07;3.63;;;;;;;-2.21;94.53;98699.25;10456858;28;20215;-57
2021/01/29 03:16:49;;;;;;;7.37;3.30;;;;;;;-2.17;95.17;98678.25;10456334;28;20242;-58
2021/01/29 03:21:54;;;;;;;9.07;2.90;;;;;;;-2.12;95.62;98679.75;10456602;28;20190;-58
2021/01/29 03:26:59;;;;;;;9.70;3.43;;;;;;;-2.11;94.82;98694.50;10457539;28;20257;-59
2021/01/29 03:32:02;;;;;;;6.03;3.43;;;;;;;-2.20;94.24;98671.38;10455398;28;20203;-58
2021/01/29 03:37:07;;;;;;;4.43;3.20;;;;;;;-2.09;96.20;98669.19;10457253;28;20202;-58
2021/01/29 03:42:20;;;;;;;2.77;2.17;;;;;;;-2.08;94.94;98675.25;10455012;28;20579;-58
2021/01/29 03:47:28;;;;;;;4.67;3.03;;;;;;;-2.09;94.63;98679.63;10414919;28;20232;-59
2021/01/29 03:52:31;;;;;;;9.13;3.90;;;;;;;-2.10;94.37;98680.53;10413537;28;20241;-58
2021/01/29 03:57:46;;;;;;;5.43;2.07;;;;;;;-2.09;94.06;98682.25;10413174;28;20173;-59
2021/01/29 04:03:09;;;;;;;3.80;2.47;;;;;;;-2.08;94.25;98688.31;10413672;28;20172;-59
2021/01/29 04:08:32;;;;;;;5.23;2.77;;;;;;;-2.06;94.45;98687.34;10429407;28;20251;-58
2021/01/29 04:13:39;;;;;;;3.67;2.20;;;;;;;-2.02;95.08;98691.53;10429169;28;20200;-58
2021/01/29 04:18:54;;;;;;;4.80;2.30;;;;;;;-2.00;95.22;98681.00;10429057;28;20215;-58
2021/01/29 04:24:02;;;;;;;3.77;2.90;;;;;;;-2.02;94.33;98683.69;10413241;28;20211;-59
2021/01/29 04:29:10;;;;;;;0.90;0.90;;;;;;;-2.04;94.66;98688.13;10413236;28;20307;-58
2021/01/29 04:34:24;;;;;;;3.67;2.43;;;;;;;-2.02;94.80;98675.84;10411760;28;20177;-58
2021/01/29 04:39:37;;;;;;;2.40;1.83;;;;;;;-2.02;94.92;98668.00;10412884;28;20537;-59
2021/01/29 04:45:05;;;;;;;3.30;2.73;;;;;;;-2.08;95.14;98670.88;10453330;28;20194;-58
2021/01/29 04:50:11;;;;;;;2.80;2.57;;;;;;;-2.09;95.25;98676.16;10432203;28;20327;-58
2021/01/29 04:55:36;;;;;;;4.43;2.77;;;;;;;-2.08;95.28;98670.88;10412880;28;20183;-58
2021/01/29 05:01:00;;;;;;;4.83;2.77;;;;;;;-2.07;94.81;98651.69;10412842;28;20164;-58
2021/01/29 05:06:23;;;;;;;2.90;1.97;;;;;;;-2.07;94.91;98669.97;10411478;28;20191;-58
2021/01/29 05:11:38;;;;;;;5.30;2.50;;;;;;;-2.04;95.30;98672.44;10412036;28;20228;-58
2021/01/29 05:17:16;;;;;;;3.13;2.03;;;;;;;-2.01;95.89;98664.47;10412036;28;20179;-58
2021/01/29 05:22:35;;;;;;;2.83;2.03;;;;;;;-1.99;95.65;98667.91;10412017;28;20185;-57
2021/01/29 05:27:51;;;;;;;4.97;2.20;;;;;;;-1.90;96.69;98662.28;10412079;28;20176;-57
2021/01/29 05:33:09;;;;;;;5.13;2.17;;;;;;;-1.89;96.34;98669.22;10411911;28;20224;-58
2021/01/29 05:38:18;;;;;;;2.83;1.70;;;;;;;-2.16;95.38;98633.72;10411880;28;20188;-58
2021/01/29 05:43:36;;;;;;;3.33;2.27;;;;;;;-1.93;95.31;98664.16;10425391;28;20696;-58
2021/01/29 05:48:58;;;;;;;2.53;2.03;;;;;;;-1.83;95.86;98674.22;10440417;28;20568;-58
2021/01/29 05:54:16;;;;;;;3.00;2.03;;;;;;;-1.83;95.45;98696.88;10410919;28;20192;-58
2021/01/29 05:59:26;;;;;;;2.07;1.97;;;;;;;-1.81;95.56;98687.19;10410313;28;20230;-58
2021/01/29 06:04:48;;;;;;;1.80;1.70;;;;;;;-1.76;96.49;98694.88;10409145;28;20288;-59
2021/01/29 06:10:10;;;;;;;3.17;2.23;;;;;;;-1.74;95.83;98700.88;10410212;28;20697;-58
2021/01/29 06:15:13;;;;;;;3.53;1.63;;;;;;;-1.74;96.80;98700.88;10410578;28;20680;-58
2021/01/29 06:20:23;;;;;;;1.67;1.43;;;;;;;-1.73;96.35;98705.19;10409825;28;20388;-58
2021/01/29 06:25:48;;;;;;;2.23;2.00;;;;;;;-1.69;97.81;98712.84;10410340;28;20173;-58
2021/01/29 06:31:11;;;;;;;2.23;1.70;;;;;;;-1.69;96.92;98717.25;10416286;28;20212;-59
2021/01/29 06:36:41;;;;;;;5.43;4.27;;;;;;;-1.61;96.98;98709.94;10415025;28;20574;-57
2021/01/29 06:42:41;;;;;;;5.17;2.40;;;;;;;-1.60;97.86;98688.97;10429850;28;20226;-69
2021/01/29 06:48:03;;;;;;;2.40;2.17;;;;;;;-1.63;95.78;98702.16;10369278;28;20185;-57
2021/01/29 06:53:22;;;;;;;4.73;2.83;;;;;;;-1.63;96.10;98702.16;10370437;28;20408;-57
2021/01/29 06:58:41;;;;;;;2.30;1.73;;;;;;;-1.65;95.94;98703.97;10369175;28;20201;-58
2021/01/29 07:04:10;;;;;;;6.27;3.10;;;;;;;-1.62;95.91;98697.78;10366383;28;20196;-58
2021/01/29 07:09:35;;;;;;;4.10;2.63;;;;;;;-1.60;95.77;98694.19;10349865;28;20315;-58
2021/01/29 07:14:49;;;;;;;4.93;3.10;;;;;;;-1.59;94.84;98689.81;10369456;28;20185;-56
2021/01/29 07:19:50;;;;;;;4.10;2.50;;;;;;;-1.56;95.30;98697.50;10457493;28;20275;-57
2021/01/29 07:25:08;;;;;;;6.17;2.83;;;;;;;-1.48;95.86;98677.13;10457961;28;20257;-56
2021/01/29 07:30:46;;;;;;;3.80;1.80;;;;;;;-1.47;94.96;98686.69;10457686;28;20239;-56
2021/01/29 07:36:01;;;;;;;3.30;2.73;;;;;;;-1.44;94.89;98676.06;10456785;28;20184;-56
2021/01/29 07:41:40;;;;;;;3.33;2.57;;;;;;;-1.44;94.09;98678.69;10456566;28;20178;-56
2021/01/29 07:47:09;;;;;;;5.17;1.60;;;;;;;-1.40;94.22;98685.50;10369399;28;20649;-56
2021/01/29 07:52:23;;;;;;;5.23;2.50;;;;;;;-1.37;94.71;98682.75;10339181;28;20587;-57
2021/01/29 07:57:29;;;;;;;4.77;3.17;;;;;;;-1.34;94.14;98682.63;10294606;28;20198;-57
2021/01/29 08:03:08;;;;;;;5.57;3.30;;;;;;;-1.19;94.70;98671.50;10280153;28;20207;-58
2021/01/29 08:08:11;;;;;;;6.70;2.60;;;;;;;-1.15;94.06;98686.16;10258662;28;21208;-58
2021/01/29 08:13:31;;;;;;;2.27;1.97;;;;;;;-1.11;93.40;98681.66;10296806;28;21850;-56
2021/01/29 08:18:56;;;;;;;4.87;2.80;;;;;;;-1.09;92.31;98670.19;10422786;28;20573;-61
2021/01/29 08:24:21;;;;;;;3.77;2.70;;;;;;;-1.00;93.21;98660.25;10426137;28;20246;-58
2021/01/29 08:29:29;;;;;;;3.40;1.93;;;;;;;-0.97;93.20;98649.63;10421198;28;20211;-59
2021/01/29 08:34:48;;;;;;;3.27;2.07;;;;;;;-0.98;92.16;98663.66;10425152;28;20268;-59
2021/01/29 08:40:03;;;;;;;3.67;2.60;;;;;;;-0.96;91.10;98667.03;10421117;28;20195;-56
2021/01/29 08:45:23;;;;;;;2.90;2.27;;;;;;;-0.88;90.71;98678.03;10425471;28;20704;-60
2021/01/29 08:50:59;;;;;;;4.10;2.90;;;;;;;-0.86;91.28;98673.56;10419560;28;20219;-61
2021/01/29 08:56:05;;;;;;;3.30;2.30;;;;;;;-0.81;90.54;98671.59;10423617;28;20195;-60
2021/01/29 09:01:23;;;;;;;3.70;2.80;;;;;;;-0.82;89.70;98690.81;10420046;28;20175;-59
2021/01/29 09:06:26;;;;;;;9.03;3.57;;;;;;;-0.87;89.90;98664.03;10424707;28;20301;-59
2021/01/29 09:11:37;;;;;;;5.40;3.43;;;;;;;-0.89;89.36;98682.41;10420806;28;20785;-62
2021/01/29 09:16:39;;;;;;;7.00;3.70;;;;;;;-0.89;90.10;98678.94;10407458;28;20212;-61
2021/01/29 09:22:32;;;;;;;7.23;3.90;;;;;;;-0.87;89.60;98671.88;10420805;28;20945;-61
2021/01/29 09:27:41;;;;;;;7.20;3.70;;;;;;;-0.83;89.91;98676.03;10419218;28;20278;-61
2021/01/29 09:32:53;;;;;;;8.07;5.13;;;;;;;-0.80;88.91;98673.28;10418100;28;20934;-61
2021/01/29 09:37:55;;;;;;;7.97;3.63;;;;;;;-0.88;89.24;98660.53;10424211;28;20652;-61
2021/01/29 09:43:14;;;;;;;5.63;3.83;;;;;;;-0.77;87.68;98667.91;10420141;28;20792;-61
2021/01/29 09:48:15;;;;;;;6.53;3.57;;;;;;;-0.80;88.67;98668.06;10422962;28;20191;-63
2021/01/29 09:53:21;;;;;;;3.33;2.90;;;;;;;-0.85;88.04;98667.44;10419180;28;20202;-62
2021/01/29 09:58:24;;;;;;;7.57;4.57;;;;;;;-0.84;89.17;98667.31;10423585;28;20295;-61
2021/01/29 10:03:33;;;;;;;7.70;3.50;;;;;;;-0.83;88.68;98669.03;10422520;28;20184;-60
2021/01/29 10:08:39;;;;;;;7.80;3.77;;;;;;;-0.80;89.18;98662.81;10429408;28;20239;-60
2021/01/29 10:13:44;;;;;;;4.53;3.77;;;;;;;-0.78;90.07;98677.53;10426673;28;20322;-61
2021/01/29 10:19:13;;;;;;;6.30;3.57;;;;;;;-0.77;87.93;98681.00;10430712;28;20195;-58
2021/01/29 10:24:17;;;;;;;4.33;2.10;;;;;;;-0.80;86.87;98678.53;10429324;28;20390;-60
2021/01/29 10:29:22;;;;;;;6.23;4.00;;;;;;;-0.77;87.67;98673.16;10441982;28;20269;-58
2021/01/29 10:34:30;;;;;;;4.13;3.40;;;;;;;-0.74;87.34;98683.50;10430522;28;20614;-59
2021/01/29 10:39:47;;;;;;;4.97;2.87;;;;;;;-0.76;87.51;98669.63;10426032;28;20188;-60
2021/01/29 10:44:51;;;;;;;4.43;2.47;;;;;;;-0.75;86.22;98671.31;10428122;28;20191;-58
2021/01/29 10:49:55;;;;;;;11.40;5.00;;;;;;;-0.65;88.39;98677.00;10408149;28;20211;-57
2021/01/29 10:54:56;;;;;;;12.97;4.67;;;;;;;-0.61;87.89;98679.41;10429294;28;20188;-57
2021/01/29 11:00:07;;;;;;;8.20;4.80;;;;;;;-0.68;87.33;98677.97;10426581;28;20270;-57
2021/01/29 11:05:12;;;;;;;7.37;4.90;;;;;;;-0.70;87.75;98679.81;10428129;28;20176;-58
2021/01/29 11:10:19;;;;;;;3.67;2.60;;;;;;;-0.73;88.02;98677.34;10423568;28;20678;-58
2021/01/29 11:15:45;;;;;;;11.73;6.20;;;;;;;-0.72;87.36;98686.88;10426579;28;20202;-57
2021/01/29 11:20:47;;;;;;;6.53;4.07;;;;;;;-0.70;88.68;98671.94;10423014;28;20175;-57
2021/01/29 11:25:58;;;;;;;9.57;5.40;;;;;;;-0.72;87.67;98673.78;10428586;28;20257;-57
2021/01/29 11:31:35;;;;;;;12.63;5.70;;;;;;;-0.78;88.12;98676.69;10425255;28;20322;-57
2021/01/29 11:36:39;;;;;;;8.77;5.00;;;;;;;-0.76;88.33;98669.63;10424063;28;20726;-58
2021/01/29 11:41:52;;;;;;;5.23;2.70;;;;;;;-0.77;87.92;98684.47;10421600;28;20180;-59
2021/01/29 11:47:21;;;;;;;5.63;3.50;;;;;;;-0.73;88.45;98687.81;10425624;28;20176;-59
2021/01/29 11:52:59;;;;;;;7.93;4.73;;;;;;;-0.66;87.92;98691.84;10412749;28;20234;-58
2021/01/29 11:58:21;;;;;;;7.37;5.03;;;;;;;-0.57;88.10;98682.72;10421744;28;20206;-58
2021/01/29 12:03:37;;;;;;;8.83;4.90;;;;;;;-0.57;87.24;98680.94;10420959;28;20206;-59
2021/01/29 12:08:43;;;;;;;4.97;4.17;;;;;;;-0.56;86.67;98682.66;10427325;28;20235;-58
2021/01/29 12:14:02;;;;;;;5.37;3.43;;;;;;;-0.62;87.34;98682.94;10422043;28;20704;-60
2021/01/29 12:19:05;;;;;;;4.17;2.80;;;;;;;-0.65;86.70;98683.06;10424079;28;20188;-59
2021/01/29 12:24:42;;;;;;;7.53;3.83;;;;;;;-0.69;85.95;98686.75;10424612;28;20264;-59
2021/01/29 12:29:55;;;;;;;6.00;3.80;;;;;;;-0.69;86.82;98684.13;10421098;28;20310;-58
2021/01/29 12:35:06;;;;;;;3.60;3.23;;;;;;;-0.71;86.76;98683.34;10426377;28;20184;-59
2021/01/29 12:40:30;;;;;;;6.20;4.13;;;;;;;-0.70;87.60;98681.56;10404240;28;20591;-59
2021/01/29 12:45:39;;;;;;;8.27;4.10;;;;;;;-0.65;87.19;98677.00;10425443;28;20183;-58
2021/01/29 12:51:22;;;;;;;12.30;6.20;;;;;;;-0.57;86.36;98680.09;10403505;28;20226;-58
2021/01/29 12:56:38;;;;;;;7.37;4.00;;;;;;;-0.59;86.73;98664.44;10423887;28;20729;-58
2021/01/29 13:01:52;;;;;;;3.53;2.23;;;;;;;-0.65;86.18;98662.13;10421290;28;20209;-58
2021/01/29 13:07:13;;;;;;;5.67;3.83;;;;;;;-0.59;86.12;98666.22;10423107;28;20671;-59
2021/01/29 13:12:13;;;;;;;8.50;4.90;;;;;;;-0.54;87.00;98648.53;10420108;28;20234;-58
2021/01/29 13:17:27;;;;;;;4.70;3.83;;;;;;;-0.43;87.09;98657.59;10424362;28;20199;-58
2021/01/29 13:22:38;;;;;;;3.90;3.03;;;;;;;-0.29;85.33;98649.09;10418765;28;20947;-59
2021/01/29 13:27:59;;;;;;;6.47;4.30;;;;;;;-0.20;85.18;98647.81;10424689;28;20196;-58
2021/01/29 13:33:28;;;;;;;6.57;4.43;;;;;;;-0.17;85.42;98637.19;10418818;28;20644;-58
2021/01/29 13:38:35;;;;;;;6.20;4.30;;;;;;;-0.21;84.31;98633.00;10419025;28;20199;-58
2021/01/29 13:43:37;;;;;;;6.63;4.73;;;;;;;-0.35;84.41;98641.50;10429496;28;20183;-58
2021/01/29 13:48:37;;;;;;;7.10;5.33;;;;;;;-0.35;84.52;98649.38;10432268;28;20168;-59
2021/01/29 13:53:39;;;;;;;8.13;4.40;;;;;;;-0.44;85.28;98644.56;10428738;28;20207;-58
2021/01/29 13:58:45;;;;;;;7.90;4.97;;;;;;;-0.49;86.06;98647.41;10430597;28;20183;-58
2021/01/29 14:04:09;;;;;;;6.83;5.27;;;;;;;-0.54;86.87;98641.53;10426174;28;20183;-59
2021/01/29 14:09:12;;;;;;;5.17;4.40;;;;;;;-0.64;85.37;98647.25;10425636;28;20282;-59
2021/01/29 14:14:32;;;;;;;6.40;5.10;;;;;;;-0.74;86.51;98641.59;10411453;28;20577;-64
2021/01/29 14:19:56;;;;;;;7.83;4.33;;;;;;;-0.74;86.70;98646.84;10423447;28;20183;-60
2021/01/29 14:24:56;;;;;;;6.80;4.47;;;;;;;-0.73;87.66;98648.53;10431286;28;20183;-60
2021/01/29 14:30:12;;;;;;;8.07;5.23;;;;;;;-0.77;87.14;98650.44;10423452;28;20584;-61
2021/01/29 14:35:18;;;;;;;8.33;4.30;;;;;;;-0.83;87.73;98650.69;10430224;28;20250;-60
2021/01/29 14:40:45;;;;;;;11.27;5.50;;;;;;;-0.81;88.77;98661.09;10426292;28;20190;-62
2021/01/29 14:45:58;;;;;;;9.30;6.33;;;;;;;-0.85;88.35;98655.19;10428906;28;20199;-60
2021/01/29 14:51:12;;;;;;;11.30;5.50;;;;;;;-0.92;87.85;98658.13;10425208;28;20310;-60
2021/01/29 14:56:26;;;;;;;7.33;4.87;;;;;;;-0.95;87.59;98663.50;10429752;28;20187;-59
2021/01/29 15:01:27;;;;;;;9.40;5.77;;;;;;;-0.96;88.29;98661.78;10425595;28;20215;-61
2021/01/29 15:06:31;;;;;;;8.27;5.60;;;;;;;-0.95;88.25;98653.00;10427547;28;20194;-60
2021/01/29 15:11:37;;;;;;;7.77;5.63;;;;;;;-0.95;88.10;98653.88;10424133;28;20298;-60
2021/01/29 15:16:37;;;;;;;6.93;5.67;;;;;;;-0.96;87.53;98662.63;10428039;28;20242;-58
2021/01/29 15:21:38;;;;;;;11.87;6.87;;;;;;;-0.99;88.38;98672.41;10425384;28;20201;-58
2021/01/29 15:27:01;;;;;;;9.37;6.20;;;;;;;-1.00;88.83;98673.31;10427494;28;20171;-59
2021/01/29 15:32:01;;;;;;;10.20;6.63;;;;;;;-1.01;88.34;98679.47;10424447;28;20222;-59
2021/01/29 15:37:02;;;;;;;9.53;6.13;;;;;;;-1.07;88.78;98675.34;10428441;28;20279;-59
2021/01/29 15:42:06;;;;;;;12.10;5.70;;;;;;;-1.09;87.76;98678.03;10423983;28;20179;-58
2021/01/29 15:47:27;;;;;;;15.80;10.95;;;;;;;-1.09;88.80;98677.22;10421311;28;20930;-60
2021/01/29 15:52:45;;;;;;;10.33;6.47;;;;;;;-1.21;89.57;98668.09;10422889;28;20334;-57
2021/01/29 15:57:48;;;;;;;12.03;7.00;;;;;;;-1.25;89.64;98671.78;10426547;28;20230;-56
2021/01/29 16:03:01;;;;;;;12.70;6.90;;;;;;;-1.22;89.01;98668.19;10421273;28;20176;-55
2021/01/29 16:08:10;;;;;;;9.00;6.00;;;;;;;-1.24;89.24;98665.63;10426480;28;20219;-56
2021/01/29 16:13:18;;;;;;;17.70;11.63;;;;;;;-1.28;88.83;98665.81;10421993;28;20215;-57
2021/01/29 16:18:22;;;;;;;13.03;8.37;;;;;;;-1.27;89.35;98670.97;10426814;28;20192;-57
2021/01/29 16:23:27;;;;;;;16.80;8.93;;;;;;;-1.21;89.61;98673.31;10414974;28;20273;-58
2021/01/29 16:28:29;;;;;;;10.90;7.50;;;;;;;-1.20;88.85;98664.56;10427547;28;20184;-59
2021/01/29 16:33:29;;;;;;;14.37;7.70;;;;;;;-1.10;88.50;98671.13;10421796;28;20246;-58
2021/01/29 16:38:35;;;;;;;13.97;8.33;;;;;;;-1.16;88.87;98662.66;10426508;28;20702;-60
2021/01/29 16:43:35;;;;;;;11.40;7.93;;;;;;;-1.10;88.80;98672.88;10421883;28;20298;-59
2021/01/29 16:48:37;;;;;;;10.60;7.07;;;;;;;-1.09;89.55;98664.13;10414962;28;20310;-60
2021/01/29 16:53:38;;;;;;;9.97;7.63;;;;;;;-1.14;88.82;98659.06;10417248;28;20184;-60
2021/01/29 16:58:42;;;;;;;8.63;6.60;;;;;;;-1.15;89.61;98660.00;10417694;28;20195;-56
2021/01/29 17:03:48;;;;;;;11.80;6.87;;;;;;;-1.13;90.10;98657.31;10419630;28;20402;-58
2021/01/29 17:08:50;;;;;;;13.10;7.77;;;;;;;-1.33;90.04;98626.78;10444539;28;20236;-60
2021/01/29 17:13:50;;;;;;;12.70;7.50;;;;;;;-1.15;89.78;98652.13;10462236;28;20765;-63
2021/01/29 17:18:59;;;;;;;12.53;8.00;;;;;;;-1.14;90.09;98653.84;10445778;28;20226;-57
2021/01/29 17:24:22;;;;;;;13.33;7.47;;;;;;;-1.11;90.49;98660.72;10444137;28;20226;-56
2021/01/29 17:29:27;;;;;;;13.93;7.93;;;;;;;-1.16;90.34;98663.53;10463657;28;20209;-61
2021/01/29 17:34:31;;;;;;;12.73;7.70;;;;;;;-1.22;90.82;98655.94;10462775;28;20551;-60
2021/01/29 17:39:57;;;;;;;13.67;8.13;;;;;;;-1.11;90.70;98674.66;10484587;28;20624;-57
2021/01/29 17:45:06;;;;;;;15.27;8.70;;;;;;;-1.09;90.79;98670.19;10273292;28;20212;-56
2021/01/29 17:50:27;;;;;;;12.17;7.27;;;;;;;-1.39;89.77;98629.66;10273813;28;20237;-56
2021/01/29 17:55:39;;;;;;;8.83;5.57;;;;;;;-1.11;90.24;98671.19;10294194;28;20289;-60
2021/01/29 18:00:39;;;;;;;12.30;7.67;;;;;;;-1.04;89.24;98663.91;10289224;28;21285;-57
2021/01/29 18:05:54;;;;;;;14.57;8.73;;;;;;;-1.10;90.02;98660.66;10313867;28;20260;-57
2021/01/29 18:10:57;;;;;;;12.53;7.83;;;;;;;-1.09;89.37;98664.13;10362641;28;20240;-58
2021/01/29 18:16:08;;;;;;;14.33;8.53;;;;;;;-1.14;89.71;98663.47;10364410;28;20633;-58
2021/01/29 18:21:17;;;;;;;30.00;13.10;;;;;;;-1.19;89.63;98654.94;10484209;28;20789;-57
2021/01/29 18:26:22;;;;;;;57.83;19.47;;;;;;;-1.25;89.70;98660.47;10536973;28;20186;-56
2021/01/29 18:31:27;;;;;;;32.63;12.83;;;;;;;-1.37;89.56;98653.13;10539654;28;20217;-58
2021/01/29 18:36:30;;;;;;;19.00;9.87;;;;;;;-1.45;89.19;98643.81;10564171;28;20625;-57
2021/01/29 18:41:32;;;;;;;11.27;7.27;;;;;;;-1.47;89.24;98644.84;10583946;28;20224;-57
2021/01/29 18:46:33;;;;;;;8.33;6.00;;;;;;;-1.54;88.11;98638.16;10583805;28;20200;-58
2021/01/29 18:51:34;;;;;;;16.90;7.20;;;;;;;-1.61;87.92;98626.25;10583409;28;20291;-58
2021/01/29 18:56:34;;;;;;;11.03;7.60;;;;;;;-1.59;88.90;98640.13;10527230;28;20185;-57
2021/01/29 19:01:35;;;;;;;9.93;7.13;;;;;;;-1.58;88.30;98647.06;10528304;28;20187;-58
2021/01/29 19:06:35;;;;;;;11.23;6.83;;;;;;;-1.66;88.17;98638.66;10498978;28;20691;-57
2021/01/29 19:11:36;;;;;;;19.30;10.23;;;;;;;-1.77;89.03;98640.88;10498675;28;20262;-57
2021/01/29 19:16:36;;;;;;;13.67;8.17;;;;;;;-1.81;88.24;98635.75;10499091;28;20266;-58
2021/01/29 19:21:37;;;;;;;8.47;5.70;;;;;;;-1.76;89.26;98651.28;10504517;28;20194;-57
2021/01/29 19:26:37;;;;;;;13.77;7.83;;;;;;;-1.69;89.08;98650.09;10522580;28;20345;-58
2021/01/29 19:31:38;;;;;;;18.23;10.20;;;;;;;-1.68;88.54;98645.72;10539831;28;20206;-57
2021/01/29 19:36:40;;;;;;;27.63;11.10;;;;;;;-1.71;88.92;98645.88;10539304;28;20776;-57
2021/01/29 19:41:40;;;;;;;58.23;17.03;;;;;;;-1.75;88.63;98641.66;10540506;28;20174;-58
2021/01/29 19:46:41;;;;;;;86.23;21.70;;;;;;;-1.73;89.22;98634.63;10540167;28;20170;-58
2021/01/29 19:51:42;;;;;;;47.27;14.73;;;;;;;-1.73;89.50;98632.00;10539709;28;20551;-59
2021/01/29 19:56:43;;;;;;;22.67;9.80;;;;;;;-1.72;88.98;98628.47;10539584;28;20174;-59
2021/01/29 20:01:43;;;;;;;19.83;10.03;;;;;;;-1.66;89.29;98633.44;10524184;28;20282;-59
2021/01/29 20:06:44;;;;;;;94.70;23.23;;;;;;;-1.61;89.52;98626.25;10495808;28;20234;-59
2021/01/29 20:11:44;;;;;;;82.33;16.17;;;;;;;-1.61;89.41;98621.03;10503883;28;20214;-60
2021/01/29 20:16:45;;;;;;;22.23;7.67;;;;;;;-1.61;89.19;98615.78;10507577;28;20240;-58
2021/01/29 20:21:46;;;;;;;10.83;7.33;;;;;;;-1.66;88.81;98610.75;10510154;28;20182;-63
2021/01/29 20:26:47;;;;;;;16.50;9.30;;;;;;;-1.75;88.95;98612.91;10507124;28;20200;-64
2021/01/29 20:31:48;;;;;;;14.63;9.07;;;;;;;-1.83;89.39;98616.69;10529610;28;20646;-61
2021/01/29 20:36:49;;;;;;;14.53;9.07;;;;;;;-1.87;88.95;98609.88;10536561;28;20167;-58
2021/01/29 20:41:52;;;;;;;13.13;8.33;;;;;;;-1.94;88.80;98616.31;10536502;28;20178;-60
2021/01/29 20:46:52;;;;;;;25.87;12.67;;;;;;;-2.03;90.05;98624.50;10534205;28;20263;-61
2021/01/29 20:51:53;;;;;;;20.73;11.10;;;;;;;-2.05;89.28;98636.75;10559485;28;20670;-59
2021/01/29 20:56:54;;;;;;;25.70;12.93;;;;;;;-2.05;90.07;98642.00;10546548;28;20183;-59
2021/01/29 21:01:54;;;;;;;20.10;11.53;;;;;;;-2.01;89.54;98648.81;10518984;28;20189;-60
2021/01/29 21:06:55;;;;;;;18.60;9.63;;;;;;;-2.15;90.09;98613.69;10492509;28;20215;-58
2021/01/29 21:11:55;;;;;;;18.17;10.93;;;;;;;-1.82;89.78;98655.00;10532829;28;20242;-56
2021/01/29 21:16:56;;;;;;;18.20;11.03;;;;;;;-1.74;89.59;98656.44;10533331;28;20586;-56
2021/01/29 21:21:56;;;;;;;21.30;10.67;;;;;;;-1.66;89.83;98659.56;10536598;28;20191;-57
2021/01/29 21:26:57;;;;;;;20.60;10.97;;;;;;;-1.59;89.39;98658.44;10528319;28;20346;-57
2021/01/29 21:32:04;;;;;;;23.63;11.50;;;;;;;-1.60;88.81;98644.50;10508287;28;20229;-56
2021/01/29 21:37:04;;;;;;;15.53;9.07;;;;;;;-1.50;89.25;98651.03;10516175;28;20627;-56
2021/01/29 21:42:09;;;;;;;17.40;10.10;;;;;;;-1.49;89.77;98657.13;10505383;28;20187;-56
2021/01/29 21:47:12;;;;;;;17.83;10.43;;;;;;;-1.49;88.95;98657.13;10494264;28;20255;-57
2021/01/29 21:52:14;;;;;;;20.97;10.33;;;;;;;-1.47;89.03;98660.53;10494126;28;20263;-56
2021/01/29 21:57:16;;;;;;;18.17;9.80;;;;;;;-1.49;89.85;98659.75;10529855;28;20655;-57
2021/01/29 22:02:16;;;;;;;17.33;10.63;;;;;;;-1.47;89.11;98658.75;10543758;28;20269;-57
2021/01/29 22:07:17;;;;;;;15.60;9.50;;;;;;;-1.45;89.39;98658.69;10517887;28;20233;-56
2021/01/29 22:12:17;;;;;;;14.73;9.57;;;;;;;-1.46;88.89;98663.09;10531640;28;20690;-56
2021/01/29 22:17:18;;;;;;;15.83;9.57;;;;;;;-1.48;89.35;98653.59;10501299;28;20222;-57
2021/01/29 22:22:18;;;;;;;16.57;10.50;;;;;;;-1.48;89.38;98659.69;10525681;28;20181;-56
2021/01/29 22:27:21;;;;;;;19.60;11.20;;;;;;;-1.47;90.16;98650.06;10542463;28;20178;-56
2021/01/29 22:32:21;;;;;;;16.90;10.83;;;;;;;-1.46;89.62;98659.63;10542455;28;20252;-55
2021/01/29 22:37:25;;;;;;;19.83;11.00;;;;;;;-1.43;90.20;98658.63;10534244;28;20175;-56
2021/01/29 22:42:25;;;;;;;18.73;11.13;;;;;;;-1.41;90.01;98655.03;10500108;28;20258;-56
2021/01/29 22:47:25;;;;;;;24.87;12.97;;;;;;;-1.42;89.88;98658.53;10498040;28;20274;-57
2021/01/29 22:52:26;;;;;;;25.93;12.90;;;;;;;-1.54;89.62;98649.47;10500896;28;20218;-57
2021/01/29 22:57:27;;;;;;;19.40;10.37;;;;;;;-1.59;90.17;98646.19;10537105;28;20190;-56
2021/01/29 23:02:28;;;;;;;18.90;10.87;;;;;;;-1.58;89.53;98641.81;10542131;28;20210;-57
2021/01/29 23:07:28;;;;;;;22.67;10.77;;;;;;;-1.48;90.35;98645.75;10540924;28;20254;-58
2021/01/29 23:12:28;;;;;;;17.87;10.17;;;;;;;-1.50;88.95;98644.97;10540328;28;20217;-57
2021/01/29 23:17:29;;;;;;;18.90;11.37;;;;;;;-1.52;89.92;98636.31;10541539;28;20170;-57
2021/01/29 23:22:29;;;;;;;19.53;9.93;;;;;;;-1.46;89.97;98623.00;10523092;28;20181;-58
2021/01/29 23:27:30;;;;;;;15.17;10.07;;;;;;;-1.49;90.02;98620.50;10541477;28;20174;-59
2021/01/29 23:32:30;;;;;;;23.57;11.90;;;;;;;-1.50;89.42;98624.03;10540520;28;20197;-57
2021/01/29 23:37:31;;;;;;;26.17;11.57;;;;;;;-1.47;89.38;98624.75;10540885;28;20175;-58
2021/01/29 23:42:31;;;;;;;20.50;11.33;;;;;;;-1.43;89.88;98635.06;10540165;28;20616;-58
2021/01/29 23:47:32;;;;;;;15.80;10.27;;;;;;;-1.47;89.95;98631.75;10540532;28;20171;-56
2021/01/29 23:52:32;;;;;;;17.03;9.33;;;;;;;-1.47;89.41;98640.44;10513178;28;20663;-56